sensor_id;sensor_type;location;lat;lon;timestamp;temperature;humidity
42479;DHT22;28110;47.080;9.476;2023-04-15T00:01:05;6.20;99.90
42479;DHT22;28110;47.080;9.476;2023-04-15T00:03:30;6.10;99.90
42479;DHT22;28110;47.080;9.476;2023-04-15T00:05:58;6.10;99.90
42479;DHT22;28110;47.080;9.476;2023-04-15T00:08:24;6.00;99.90
42479;DHT22;28110;47.080;9.476;2023-04-15T00:10:49;6.00;99.90
42479;DHT22;28110;47.080;9.476;2023-04-15T00:13:15;5.90;99.90
42479;DHT22;28110;47.080;9.476;2023-04-15T00:15:41;5.90;99.90
42479;DHT22;28110;47.080;9.476;2023-04-15T00:18:07;5.90;99.90
42479;DHT22;28110;47.080;9.476;2023-04-15T00:20:33;5.90;99.90
42479;DHT22;28110;47.080;9.476;2023-04-15T00:23:00;5.80;99.90
42479;DHT22;28110;47.080;9.476;2023-04-15T00:25:26;5.80;99.90
42479;DHT22;28110;47.080;9.476;2023-04-15T00:27:52;5.80;99.90
42479;DHT22;28110;47.080;9.476;2023-04-15T00:30:18;5.80;99.90
42479;DHT22;28110;47.080;9.476;2023-04-15T00:32:43;5.80;99.90
42479;DHT22;28110;47.080;9.476;2023-04-15T00:35:09;5.80;99.90
42479;DHT22;28110;47.080;9.476;2023-04-15T00:37:35;5.80;99.90
42479;DHT22;28110;47.080;9.476;2023-04-15T00:40:01;5.80;99.90
42479;DHT22;28110;47.080;9.476;2023-04-15T00:42:30;5.70;99.90
42479;DHT22;28110;47.080;9.476;2023-04-15T00:44:56;5.70;99.90
42479;DHT22;28110;47.080;9.476;2023-04-15T00:47:22;5.70;99.90
42479;DHT22;28110;47.080;9.476;2023-04-15T00:49:47;5.70;99.90
42479;DHT22;28110;47.080;9.476;2023-04-15T00:52:13;5.70;99.90
42479;DHT22;28110;47.080;9.476;2023-04-15T00:54:39;5.70;99.90
42479;DHT22;28110;47.080;9.476;2023-04-15T00:57:05;5.70;99.90
42479;DHT22;28110;47.080;9.476;2023-04-15T00:59:32;5.70;99.90
42479;DHT22;28110;47.080;9.476;2023-04-15T01:01:58;5.70;99.90
42479;DHT22;28110;47.080;9.476;2023-04-15T01:04:24;5.60;99.90
42479;DHT22;28110;47.080;9.476;2023-04-15T01:06:50;5.60;99.90
42479;DHT22;28110;47.080;9.476;2023-04-15T01:09:16;5.70;99.90
42479;DHT22;28110;47.080;9.476;2023-04-15T01:11:42;5.70;99.90
42479;DHT22;28110;47.080;9.476;2023-04-15T01:14:09;5.70;99.90
42479;DHT22;28110;47.080;9.476;2023-04-15T01:16:36;5.60;99.90
42479;DHT22;28110;47.080;9.476;2023-04-15T01:19:05;5.60;99.90
42479;DHT22;28110;47.080;9.476;2023-04-15T01:21:36;5.60;99.90
42479;DHT22;28110;47.080;9.476;2023-04-15T01:24:08;5.60;99.90
42479;DHT22;28110;47.080;9.476;2023-04-15T01:26:38;5.60;99.90
42479;DHT22;28110;47.080;9.476;2023-04-15T01:29:04;5.60;99.90
42479;DHT22;28110;47.080;9.476;2023-04-15T01:31:31;5.50;99.90
42479;DHT22;28110;47.080;9.476;2023-04-15T01:33:57;5.50;99.90
42479;DHT22;28110;47.080;9.476;2023-04-15T01:36:22;5.40;99.90
42479;DHT22;28110;47.080;9.476;2023-04-15T01:38:48;5.40;99.90
42479;DHT22;28110;47.080;9.476;2023-04-15T01:41:14;5.40;99.90
42479;DHT22;28110;47.080;9.476;2023-04-15T01:43:40;5.40;99.90
42479;DHT22;28110;47.080;9.476;2023-04-15T01:46:06;5.40;99.90
42479;DHT22;28110;47.080;9.476;2023-04-15T01:48:32;5.40;99.90
42479;DHT22;28110;47.080;9.476;2023-04-15T01:50:58;5.40;99.90
42479;DHT22;28110;47.080;9.476;2023-04-15T01:53:24;5.30;99.90
42479;DHT22;28110;47.080;9.476;2023-04-15T01:55:50;5.20;99.90
42479;DHT22;28110;47.080;9.476;2023-04-15T01:58:17;5.10;99.90
42479;DHT22;28110;47.080;9.476;2023-04-15T02:00:42;5.10;99.90
42479;DHT22;28110;47.080;9.476;2023-04-15T02:03:08;5.00;99.90
42479;DHT22;28110;47.080;9.476;2023-04-15T02:05:34;5.10;99.90
42479;DHT22;28110;47.080;9.476;2023-04-15T02:07:59;5.00;99.90
42479;DHT22;28110;47.080;9.476;2023-04-15T02:10:25;5.00;99.90
42479;DHT22;28110;47.080;9.476;2023-04-15T02:12:52;4.90;99.90
42479;DHT22;28110;47.080;9.476;2023-04-15T02:15:18;4.90;99.90
42479;DHT22;28110;47.080;9.476;2023-04-15T02:17:44;4.90;99.90
42479;DHT22;28110;47.080;9.476;2023-04-15T02:20:15;4.90;99.90
42479;DHT22;28110;47.080;9.476;2023-04-15T02:22:41;4.90;99.90
42479;DHT22;28110;47.080;9.476;2023-04-15T02:25:07;4.80;99.90
42479;DHT22;28110;47.080;9.476;2023-04-15T02:27:32;4.80;99.90
42479;DHT22;28110;47.080;9.476;2023-04-15T02:29:58;4.90;99.90
42479;DHT22;28110;47.080;9.476;2023-04-15T02:32:23;4.90;99.90
42479;DHT22;28110;47.080;9.476;2023-04-15T02:34:49;4.90;99.90
42479;DHT22;28110;47.080;9.476;2023-04-15T02:37:15;5.00;99.90
42479;DHT22;28110;47.080;9.476;2023-04-15T02:39:41;5.00;99.90
42479;DHT22;28110;47.080;9.476;2023-04-15T02:42:07;4.90;99.90
42479;DHT22;28110;47.080;9.476;2023-04-15T02:44:32;5.00;99.90
42479;DHT22;28110;47.080;9.476;2023-04-15T02:46:59;5.00;99.90
42479;DHT22;28110;47.080;9.476;2023-04-15T02:49:25;5.00;99.90
42479;DHT22;28110;47.080;9.476;2023-04-15T02:51:50;5.00;99.90
42479;DHT22;28110;47.080;9.476;2023-04-15T02:54:17;4.90;99.90
42479;DHT22;28110;47.080;9.476;2023-04-15T02:56:42;4.90;99.90
42479;DHT22;28110;47.080;9.476;2023-04-15T02:59:08;4.90;99.90
42479;DHT22;28110;47.080;9.476;2023-04-15T03:01:33;4.90;99.90
42479;DHT22;28110;47.080;9.476;2023-04-15T03:03:59;4.90;99.90
42479;DHT22;28110;47.080;9.476;2023-04-15T03:06:25;4.90;99.90
42479;DHT22;28110;47.080;9.476;2023-04-15T03:08:50;4.90;99.90
42479;DHT22;28110;47.080;9.476;2023-04-15T03:11:16;4.90;99.90
42479;DHT22;28110;47.080;9.476;2023-04-15T03:13:42;5.00;99.90
42479;DHT22;28110;47.080;9.476;2023-04-15T03:16:08;4.90;99.90
42479;DHT22;28110;47.080;9.476;2023-04-15T03:18:34;4.90;99.90
42479;DHT22;28110;47.080;9.476;2023-04-15T03:20:59;5.00;99.90
42479;DHT22;28110;47.080;9.476;2023-04-15T03:23:25;4.90;99.90
42479;DHT22;28110;47.080;9.476;2023-04-15T03:25:51;5.00;99.90
42479;DHT22;28110;47.080;9.476;2023-04-15T03:28:16;4.90;99.90
42479;DHT22;28110;47.080;9.476;2023-04-15T03:30:42;4.90;99.90
42479;DHT22;28110;47.080;9.476;2023-04-15T03:33:07;4.90;99.90
42479;DHT22;28110;47.080;9.476;2023-04-15T03:35:33;4.90;99.90
42479;DHT22;28110;47.080;9.476;2023-04-15T03:37:59;5.00;99.90
42479;DHT22;28110;47.080;9.476;2023-04-15T03:40:24;5.00;99.90
42479;DHT22;28110;47.080;9.476;2023-04-15T03:42:50;5.00;99.90
42479;DHT22;28110;47.080;9.476;2023-04-15T03:45:16;5.00;99.90
42479;DHT22;28110;47.080;9.476;2023-04-15T03:47:41;5.10;99.90
42479;DHT22;28110;47.080;9.476;2023-04-15T03:50:07;5.10;99.90
42479;DHT22;28110;47.080;9.476;2023-04-15T03:52:33;5.00;99.90
42479;DHT22;28110;47.080;9.476;2023-04-15T03:54:58;5.10;99.90
42479;DHT22;28110;47.080;9.476;2023-04-15T03:57:24;5.10;99.90
42479;DHT22;28110;47.080;9.476;2023-04-15T03:59:49;5.10;99.90
42479;DHT22;28110;47.080;9.476;2023-04-15T04:02:15;5.20;99.90
42479;DHT22;28110;47.080;9.476;2023-04-15T04:04:41;5.20;99.90
42479;DHT22;28110;47.080;9.476;2023-04-15T04:07:07;5.20;99.90
42479;DHT22;28110;47.080;9.476;2023-04-15T04:09:33;5.10;99.90
42479;DHT22;28110;47.080;9.476;2023-04-15T04:11:59;5.10;99.90
42479;DHT22;28110;47.080;9.476;2023-04-15T04:14:24;5.10;99.90
42479;DHT22;28110;47.080;9.476;2023-04-15T04:16:54;5.10;99.90
42479;DHT22;28110;47.080;9.476;2023-04-15T04:19:20;5.20;99.90
42479;DHT22;28110;47.080;9.476;2023-04-15T04:21:45;5.20;99.90
42479;DHT22;28110;47.080;9.476;2023-04-15T04:24:11;5.20;99.90
42479;DHT22;28110;47.080;9.476;2023-04-15T04:26:36;5.30;99.90
42479;DHT22;28110;47.080;9.476;2023-04-15T04:29:02;5.30;99.90
42479;DHT22;28110;47.080;9.476;2023-04-15T04:31:27;5.30;99.90
42479;DHT22;28110;47.080;9.476;2023-04-15T04:33:53;5.20;99.90
42479;DHT22;28110;47.080;9.476;2023-04-15T04:36:19;5.20;99.90
42479;DHT22;28110;47.080;9.476;2023-04-15T04:38:44;5.30;99.90
42479;DHT22;28110;47.080;9.476;2023-04-15T04:41:10;5.20;99.90
42479;DHT22;28110;47.080;9.476;2023-04-15T04:43:35;5.20;99.90
42479;DHT22;28110;47.080;9.476;2023-04-15T04:46:01;5.20;99.90
42479;DHT22;28110;47.080;9.476;2023-04-15T04:48:26;5.20;99.90
42479;DHT22;28110;47.080;9.476;2023-04-15T04:50:52;5.20;99.90
42479;DHT22;28110;47.080;9.476;2023-04-15T04:53:18;5.30;99.90
42479;DHT22;28110;47.080;9.476;2023-04-15T04:55:43;5.30;99.90
42479;DHT22;28110;47.080;9.476;2023-04-15T04:58:08;5.30;99.90
42479;DHT22;28110;47.080;9.476;2023-04-15T05:00:34;5.30;99.90
42479;DHT22;28110;47.080;9.476;2023-04-15T05:03:00;5.30;99.90
42479;DHT22;28110;47.080;9.476;2023-04-15T05:05:25;5.30;99.90
42479;DHT22;28110;47.080;9.476;2023-04-15T05:07:51;5.40;99.90
42479;DHT22;28110;47.080;9.476;2023-04-15T05:10:17;5.30;99.90
42479;DHT22;28110;47.080;9.476;2023-04-15T05:12:42;5.40;99.90
42479;DHT22;28110;47.080;9.476;2023-04-15T05:15:08;5.30;99.90
42479;DHT22;28110;47.080;9.476;2023-04-15T05:17:34;5.40;99.90
42479;DHT22;28110;47.080;9.476;2023-04-15T05:20:00;5.40;99.90
42479;DHT22;28110;47.080;9.476;2023-04-15T05:22:26;5.40;99.90
42479;DHT22;28110;47.080;9.476;2023-04-15T05:24:52;5.40;99.90
42479;DHT22;28110;47.080;9.476;2023-04-15T05:27:17;5.50;99.90
42479;DHT22;28110;47.080;9.476;2023-04-15T05:29:43;5.50;99.90
42479;DHT22;28110;47.080;9.476;2023-04-15T05:32:09;5.40;99.90
42479;DHT22;28110;47.080;9.476;2023-04-15T05:34:35;5.40;99.90
42479;DHT22;28110;47.080;9.476;2023-04-15T05:37:00;5.40;99.90
42479;DHT22;28110;47.080;9.476;2023-04-15T05:39:26;5.50;99.90
42479;DHT22;28110;47.080;9.476;2023-04-15T05:41:52;5.50;99.90
42479;DHT22;28110;47.080;9.476;2023-04-15T05:44:17;5.50;99.90
42479;DHT22;28110;47.080;9.476;2023-04-15T05:46:43;5.50;99.90
42479;DHT22;28110;47.080;9.476;2023-04-15T05:49:08;5.50;99.90
42479;DHT22;28110;47.080;9.476;2023-04-15T05:51:34;5.60;99.90
42479;DHT22;28110;47.080;9.476;2023-04-15T05:54:00;5.60;99.90
42479;DHT22;28110;47.080;9.476;2023-04-15T05:56:26;5.70;99.90
42479;DHT22;28110;47.080;9.476;2023-04-15T05:58:51;5.80;99.90
42479;DHT22;28110;47.080;9.476;2023-04-15T06:01:17;5.80;99.90
42479;DHT22;28110;47.080;9.476;2023-04-15T06:03:43;5.80;99.90
42479;DHT22;28110;47.080;9.476;2023-04-15T06:06:09;5.80;99.90
42479;DHT22;28110;47.080;9.476;2023-04-15T06:08:34;5.90;99.90
42479;DHT22;28110;47.080;9.476;2023-04-15T06:11:00;5.90;99.90
42479;DHT22;28110;47.080;9.476;2023-04-15T06:13:25;6.00;99.90
42479;DHT22;28110;47.080;9.476;2023-04-15T06:15:51;5.90;99.90
42479;DHT22;28110;47.080;9.476;2023-04-15T06:18:17;5.90;99.90
42479;DHT22;28110;47.080;9.476;2023-04-15T06:20:44;6.00;99.90
42479;DHT22;28110;47.080;9.476;2023-04-15T06:23:09;5.90;99.90
42479;DHT22;28110;47.080;9.476;2023-04-15T06:25:35;6.00;99.90
42479;DHT22;28110;47.080;9.476;2023-04-15T06:28:01;6.00;99.90
42479;DHT22;28110;47.080;9.476;2023-04-15T06:30:26;6.00;99.90
42479;DHT22;28110;47.080;9.476;2023-04-15T06:32:52;6.00;99.90
42479;DHT22;28110;47.080;9.476;2023-04-15T06:35:17;6.00;99.90
42479;DHT22;28110;47.080;9.476;2023-04-15T06:37:43;6.00;99.90
42479;DHT22;28110;47.080;9.476;2023-04-15T06:40:09;6.00;99.90
42479;DHT22;28110;47.080;9.476;2023-04-15T06:42:34;6.00;99.90
42479;DHT22;28110;47.080;9.476;2023-04-15T06:45:02;6.00;99.90
42479;DHT22;28110;47.080;9.476;2023-04-15T06:47:28;6.10;99.90
42479;DHT22;28110;47.080;9.476;2023-04-15T06:49:54;6.10;99.90
42479;DHT22;28110;47.080;9.476;2023-04-15T06:52:19;6.20;99.90
42479;DHT22;28110;47.080;9.476;2023-04-15T06:54:45;6.20;99.90
42479;DHT22;28110;47.080;9.476;2023-04-15T06:57:10;6.20;99.90
42479;DHT22;28110;47.080;9.476;2023-04-15T06:59:36;6.20;99.90
42479;DHT22;28110;47.080;9.476;2023-04-15T07:02:01;6.30;99.90
42479;DHT22;28110;47.080;9.476;2023-04-15T07:04:27;6.30;99.90
42479;DHT22;28110;47.080;9.476;2023-04-15T07:06:53;6.30;99.90
42479;DHT22;28110;47.080;9.476;2023-04-15T07:09:20;6.40;99.90
42479;DHT22;28110;47.080;9.476;2023-04-15T07:11:46;6.40;99.90
42479;DHT22;28110;47.080;9.476;2023-04-15T07:14:11;6.40;99.90
42479;DHT22;28110;47.080;9.476;2023-04-15T07:16:37;6.40;99.90
42479;DHT22;28110;47.080;9.476;2023-04-15T07:19:03;6.40;99.90
42479;DHT22;28110;47.080;9.476;2023-04-15T07:21:28;6.60;99.90
42479;DHT22;28110;47.080;9.476;2023-04-15T07:23:54;6.60;99.90
42479;DHT22;28110;47.080;9.476;2023-04-15T07:26:19;6.60;99.90
42479;DHT22;28110;47.080;9.476;2023-04-15T07:28:45;6.60;99.90
42479;DHT22;28110;47.080;9.476;2023-04-15T07:31:11;6.70;99.90
42479;DHT22;28110;47.080;9.476;2023-04-15T07:33:37;6.70;99.90
42479;DHT22;28110;47.080;9.476;2023-04-15T07:36:03;6.80;99.90
42479;DHT22;28110;47.080;9.476;2023-04-15T07:38:28;6.80;99.90
42479;DHT22;28110;47.080;9.476;2023-04-15T07:40:54;6.90;99.90
42479;DHT22;28110;47.080;9.476;2023-04-15T07:43:20;6.90;99.90
42479;DHT22;28110;47.080;9.476;2023-04-15T07:45:46;7.00;99.90
42479;DHT22;28110;47.080;9.476;2023-04-15T07:48:11;7.00;99.90
42479;DHT22;28110;47.080;9.476;2023-04-15T07:50:37;7.00;99.90
42479;DHT22;28110;47.080;9.476;2023-04-15T07:53:03;7.10;99.90
42479;DHT22;28110;47.080;9.476;2023-04-15T07:55:28;7.10;99.90
42479;DHT22;28110;47.080;9.476;2023-04-15T07:57:54;7.20;99.90
42479;DHT22;28110;47.080;9.476;2023-04-15T08:00:20;7.30;99.90
42479;DHT22;28110;47.080;9.476;2023-04-15T08:02:46;7.40;99.90
42479;DHT22;28110;47.080;9.476;2023-04-15T08:05:13;7.50;99.90
42479;DHT22;28110;47.080;9.476;2023-04-15T08:07:39;7.60;99.90
42479;DHT22;28110;47.080;9.476;2023-04-15T08:10:05;7.70;99.90
42479;DHT22;28110;47.080;9.476;2023-04-15T08:12:31;7.80;99.90
42479;DHT22;28110;47.080;9.476;2023-04-15T08:14:56;7.80;99.90
42479;DHT22;28110;47.080;9.476;2023-04-15T08:17:23;7.90;99.90
42479;DHT22;28110;47.080;9.476;2023-04-15T08:19:48;7.90;99.90
42479;DHT22;28110;47.080;9.476;2023-04-15T08:22:14;8.00;99.90
42479;DHT22;28110;47.080;9.476;2023-04-15T08:24:40;8.10;99.90
42479;DHT22;28110;47.080;9.476;2023-04-15T08:27:05;8.20;99.90
42479;DHT22;28110;47.080;9.476;2023-04-15T08:29:32;8.30;99.90
42479;DHT22;28110;47.080;9.476;2023-04-15T08:31:59;8.40;99.90
42479;DHT22;28110;47.080;9.476;2023-04-15T08:34:25;8.50;99.90
42479;DHT22;28110;47.080;9.476;2023-04-15T08:36:50;8.60;99.90
42479;DHT22;28110;47.080;9.476;2023-04-15T08:39:17;8.70;99.90
42479;DHT22;28110;47.080;9.476;2023-04-15T08:41:48;8.70;99.90
42479;DHT22;28110;47.080;9.476;2023-04-15T08:44:17;8.80;99.90
42479;DHT22;28110;47.080;9.476;2023-04-15T08:46:42;8.90;99.90
42479;DHT22;28110;47.080;9.476;2023-04-15T08:49:12;9.00;99.90
42479;DHT22;28110;47.080;9.476;2023-04-15T08:51:40;9.10;99.90
42479;DHT22;28110;47.080;9.476;2023-04-15T08:54:08;9.20;99.90
42479;DHT22;28110;47.080;9.476;2023-04-15T08:56:34;9.30;99.90
42479;DHT22;28110;47.080;9.476;2023-04-15T08:59:00;9.30;99.90
42479;DHT22;28110;47.080;9.476;2023-04-15T09:01:26;9.30;99.90
42479;DHT22;28110;47.080;9.476;2023-04-15T09:03:52;9.40;99.90
42479;DHT22;28110;47.080;9.476;2023-04-15T09:06:22;9.40;99.90
42479;DHT22;28110;47.080;9.476;2023-04-15T09:08:49;9.50;99.90
42479;DHT22;28110;47.080;9.476;2023-04-15T09:11:14;9.60;99.90
42479;DHT22;28110;47.080;9.476;2023-04-15T09:13:42;9.60;99.90
42479;DHT22;28110;47.080;9.476;2023-04-15T09:16:07;9.80;99.90
42479;DHT22;28110;47.080;9.476;2023-04-15T09:18:34;9.90;99.90
42479;DHT22;28110;47.080;9.476;2023-04-15T09:21:11;10.00;99.90
42479;DHT22;28110;47.080;9.476;2023-04-15T09:23:39;10.00;99.90
42479;DHT22;28110;47.080;9.476;2023-04-15T09:26:06;10.00;99.90
42479;DHT22;28110;47.080;9.476;2023-04-15T09:28:31;10.00;99.90
42479;DHT22;28110;47.080;9.476;2023-04-15T09:33:23;10.30;99.90
42479;DHT22;28110;47.080;9.476;2023-04-15T09:35:59;10.40;99.90
42479;DHT22;28110;47.080;9.476;2023-04-15T09:38:25;10.50;99.90
42479;DHT22;28110;47.080;9.476;2023-04-15T09:40:51;10.50;99.90
42479;DHT22;28110;47.080;9.476;2023-04-15T09:43:17;10.60;99.90
42479;DHT22;28110;47.080;9.476;2023-04-15T09:45:50;10.70;99.90
42479;DHT22;28110;47.080;9.476;2023-04-15T09:48:23;10.80;99.90
42479;DHT22;28110;47.080;9.476;2023-04-15T09:50:53;10.90;99.90
42479;DHT22;28110;47.080;9.476;2023-04-15T09:53:23;10.90;99.90
42479;DHT22;28110;47.080;9.476;2023-04-15T09:55:53;10.90;99.90
42479;DHT22;28110;47.080;9.476;2023-04-15T09:58:21;11.00;99.90
42479;DHT22;28110;47.080;9.476;2023-04-15T10:00:49;11.00;99.90
42479;DHT22;28110;47.080;9.476;2023-04-15T10:03:21;11.10;99.90
42479;DHT22;28110;47.080;9.476;2023-04-15T10:05:49;11.10;99.90
42479;DHT22;28110;47.080;9.476;2023-04-15T10:08:19;11.20;99.90
42479;DHT22;28110;47.080;9.476;2023-04-15T10:10:47;11.20;99.90
42479;DHT22;28110;47.080;9.476;2023-04-15T10:13:23;11.20;99.90
42479;DHT22;28110;47.080;9.476;2023-04-15T10:16:01;11.20;99.80
42479;DHT22;28110;47.080;9.476;2023-04-15T10:18:34;11.20;99.90
42479;DHT22;28110;47.080;9.476;2023-04-15T10:21:00;11.30;99.90
42479;DHT22;28110;47.080;9.476;2023-04-15T10:23:26;11.40;99.60
42479;DHT22;28110;47.080;9.476;2023-04-15T10:25:53;11.40;99.30
42479;DHT22;28110;47.080;9.476;2023-04-15T10:28:19;11.40;99.00
42479;DHT22;28110;47.080;9.476;2023-04-15T10:30:47;11.40;99.20
42479;DHT22;28110;47.080;9.476;2023-04-15T10:33:16;11.50;99.50
42479;DHT22;28110;47.080;9.476;2023-04-15T10:35:43;11.50;99.90
42479;DHT22;28110;47.080;9.476;2023-04-15T10:41:18;11.50;99.70
42479;DHT22;28110;47.080;9.476;2023-04-15T10:46:42;11.40;99.20
42479;DHT22;28110;47.080;9.476;2023-04-15T10:49:13;11.40;99.30
42479;DHT22;28110;47.080;9.476;2023-04-15T10:51:40;11.50;98.70
42479;DHT22;28110;47.080;9.476;2023-04-15T10:54:15;11.50;99.00
42479;DHT22;28110;47.080;9.476;2023-04-15T10:56:44;11.50;98.00
42479;DHT22;28110;47.080;9.476;2023-04-15T10:59:10;11.60;99.00
42479;DHT22;28110;47.080;9.476;2023-04-15T11:02:14;11.60;99.10
42479;DHT22;28110;47.080;9.476;2023-04-15T11:04:53;11.70;99.80
42479;DHT22;28110;47.080;9.476;2023-04-15T11:07:53;11.70;99.90
42479;DHT22;28110;47.080;9.476;2023-04-15T11:12:58;11.80;99.90
42479;DHT22;28110;47.080;9.476;2023-04-15T11:15:33;11.90;99.90
42479;DHT22;28110;47.080;9.476;2023-04-15T11:18:20;11.80;99.90
42479;DHT22;28110;47.080;9.476;2023-04-15T11:20:53;11.90;99.90
42479;DHT22;28110;47.080;9.476;2023-04-15T11:26:00;12.00;99.90
42479;DHT22;28110;47.080;9.476;2023-04-15T11:28:30;12.10;99.90
42479;DHT22;28110;47.080;9.476;2023-04-15T11:30:56;12.20;99.90
42479;DHT22;28110;47.080;9.476;2023-04-15T11:33:23;12.20;99.90
42479;DHT22;28110;47.080;9.476;2023-04-15T11:35:50;12.30;99.90
42479;DHT22;28110;47.080;9.476;2023-04-15T11:38:17;12.40;99.90
42479;DHT22;28110;47.080;9.476;2023-04-15T11:40:43;12.40;99.30
42479;DHT22;28110;47.080;9.476;2023-04-15T11:43:09;12.40;99.30
42479;DHT22;28110;47.080;9.476;2023-04-15T11:45:37;12.50;98.50
42479;DHT22;28110;47.080;9.476;2023-04-15T11:48:09;12.50;98.80
42479;DHT22;28110;47.080;9.476;2023-04-15T11:50:35;12.60;98.50
42479;DHT22;28110;47.080;9.476;2023-04-15T11:53:03;12.50;99.30
42479;DHT22;28110;47.080;9.476;2023-04-15T11:55:29;12.60;99.00
42479;DHT22;28110;47.080;9.476;2023-04-15T12:00:32;12.80;99.60
42479;DHT22;28110;47.080;9.476;2023-04-15T12:03:24;12.90;99.60
42479;DHT22;28110;47.080;9.476;2023-04-15T12:06:12;13.00;99.00
42479;DHT22;28110;47.080;9.476;2023-04-15T12:08:58;13.10;98.10
42479;DHT22;28110;47.080;9.476;2023-04-15T12:11:47;13.00;97.40
42479;DHT22;28110;47.080;9.476;2023-04-15T12:14:28;13.00;97.20
42479;DHT22;28110;47.080;9.476;2023-04-15T12:16:57;13.00;98.00
42479;DHT22;28110;47.080;9.476;2023-04-15T12:19:34;13.00;96.30
42479;DHT22;28110;47.080;9.476;2023-04-15T12:22:02;13.10;96.00
42479;DHT22;28110;47.080;9.476;2023-04-15T12:24:31;13.10;96.60
42479;DHT22;28110;47.080;9.476;2023-04-15T12:26:59;13.10;96.80
42479;DHT22;28110;47.080;9.476;2023-04-15T12:29:27;13.10;94.60
42479;DHT22;28110;47.080;9.476;2023-04-15T12:31:58;13.20;95.50
42479;DHT22;28110;47.080;9.476;2023-04-15T12:34:31;13.20;96.00
42479;DHT22;28110;47.080;9.476;2023-04-15T12:37:00;13.20;94.80
42479;DHT22;28110;47.080;9.476;2023-04-15T12:39:28;13.30;94.40
42479;DHT22;28110;47.080;9.476;2023-04-15T12:41:54;13.30;94.40
42479;DHT22;28110;47.080;9.476;2023-04-15T12:44:22;13.20;90.10
42479;DHT22;28110;47.080;9.476;2023-04-15T12:46:49;13.10;88.40
42479;DHT22;28110;47.080;9.476;2023-04-15T12:49:14;13.00;91.20
42479;DHT22;28110;47.080;9.476;2023-04-15T12:51:41;12.90;88.70
42479;DHT22;28110;47.080;9.476;2023-04-15T12:54:06;12.90;90.20
42479;DHT22;28110;47.080;9.476;2023-04-15T12:56:32;12.90;90.10
42479;DHT22;28110;47.080;9.476;2023-04-15T12:58:57;12.80;86.70
42479;DHT22;28110;47.080;9.476;2023-04-15T13:01:23;12.80;87.30
42479;DHT22;28110;47.080;9.476;2023-04-15T13:03:49;12.70;87.40
42479;DHT22;28110;47.080;9.476;2023-04-15T13:06:15;12.70;83.70
42479;DHT22;28110;47.080;9.476;2023-04-15T13:08:41;12.70;78.60
42479;DHT22;28110;47.080;9.476;2023-04-15T13:11:06;12.70;79.90
42479;DHT22;28110;47.080;9.476;2023-04-15T13:13:32;12.50;81.20
42479;DHT22;28110;47.080;9.476;2023-04-15T13:15:58;12.50;79.80
42479;DHT22;28110;47.080;9.476;2023-04-15T13:18:24;12.50;81.80
42479;DHT22;28110;47.080;9.476;2023-04-15T13:20:49;12.40;80.00
42479;DHT22;28110;47.080;9.476;2023-04-15T13:23:15;12.40;79.70
42479;DHT22;28110;47.080;9.476;2023-04-15T13:25:41;12.40;85.30
42479;DHT22;28110;47.080;9.476;2023-04-15T13:28:06;12.40;85.30
42479;DHT22;28110;47.080;9.476;2023-04-15T13:30:32;12.40;85.00
42479;DHT22;28110;47.080;9.476;2023-04-15T13:32:57;12.40;86.60
42479;DHT22;28110;47.080;9.476;2023-04-15T13:35:23;12.30;83.40
42479;DHT22;28110;47.080;9.476;2023-04-15T13:37:48;12.20;85.20
42479;DHT22;28110;47.080;9.476;2023-04-15T13:40:14;12.10;84.60
42479;DHT22;28110;47.080;9.476;2023-04-15T13:42:41;12.00;83.50
42479;DHT22;28110;47.080;9.476;2023-04-15T13:45:07;11.90;83.10
42479;DHT22;28110;47.080;9.476;2023-04-15T13:47:33;11.80;85.90
42479;DHT22;28110;47.080;9.476;2023-04-15T13:49:59;11.80;85.70
42479;DHT22;28110;47.080;9.476;2023-04-15T13:52:24;11.80;89.30
42479;DHT22;28110;47.080;9.476;2023-04-15T13:54:50;11.80;84.10
42479;DHT22;28110;47.080;9.476;2023-04-15T13:57:16;11.80;86.70
42479;DHT22;28110;47.080;9.476;2023-04-15T13:59:41;11.70;86.20
42479;DHT22;28110;47.080;9.476;2023-04-15T14:02:08;11.80;88.90
42479;DHT22;28110;47.080;9.476;2023-04-15T14:04:34;11.90;88.40
42479;DHT22;28110;47.080;9.476;2023-04-15T14:06:59;12.00;87.80
42479;DHT22;28110;47.080;9.476;2023-04-15T14:09:25;12.10;85.80
42479;DHT22;28110;47.080;9.476;2023-04-15T14:11:50;12.10;88.60
42479;DHT22;28110;47.080;9.476;2023-04-15T14:14:16;12.20;88.60
42479;DHT22;28110;47.080;9.476;2023-04-15T14:16:42;12.30;88.70
42479;DHT22;28110;47.080;9.476;2023-04-15T14:19:07;12.30;88.60
42479;DHT22;28110;47.080;9.476;2023-04-15T14:21:33;12.30;84.10
42479;DHT22;28110;47.080;9.476;2023-04-15T14:23:59;12.30;83.60
42479;DHT22;28110;47.080;9.476;2023-04-15T14:26:24;12.30;83.50
42479;DHT22;28110;47.080;9.476;2023-04-15T14:28:50;12.30;83.00
42479;DHT22;28110;47.080;9.476;2023-04-15T14:31:17;12.40;79.50
42479;DHT22;28110;47.080;9.476;2023-04-15T14:33:42;12.40;79.00
42479;DHT22;28110;47.080;9.476;2023-04-15T14:36:08;12.30;82.70
42479;DHT22;28110;47.080;9.476;2023-04-15T14:38:35;12.40;84.30
42479;DHT22;28110;47.080;9.476;2023-04-15T14:41:07;12.30;84.00
42479;DHT22;28110;47.080;9.476;2023-04-15T14:43:33;12.20;85.50
42479;DHT22;28110;47.080;9.476;2023-04-15T14:45:59;12.20;89.60
42479;DHT22;28110;47.080;9.476;2023-04-15T14:48:25;12.30;90.10
42479;DHT22;28110;47.080;9.476;2023-04-15T14:50:50;12.30;91.20
42479;DHT22;28110;47.080;9.476;2023-04-15T14:53:16;12.30;93.10
42479;DHT22;28110;47.080;9.476;2023-04-15T14:55:42;12.30;94.10
42479;DHT22;28110;47.080;9.476;2023-04-15T14:58:07;12.30;94.40
42479;DHT22;28110;47.080;9.476;2023-04-15T15:00:34;12.20;94.10
42479;DHT22;28110;47.080;9.476;2023-04-15T15:03:00;12.30;94.50
42479;DHT22;28110;47.080;9.476;2023-04-15T15:05:26;12.30;94.40
42479;DHT22;28110;47.080;9.476;2023-04-15T15:07:51;12.30;94.60
42479;DHT22;28110;47.080;9.476;2023-04-15T15:10:17;12.30;95.10
42479;DHT22;28110;47.080;9.476;2023-04-15T15:12:42;12.40;95.30
42479;DHT22;28110;47.080;9.476;2023-04-15T15:15:08;12.30;94.60
42479;DHT22;28110;47.080;9.476;2023-04-15T15:17:34;12.20;95.70
42479;DHT22;28110;47.080;9.476;2023-04-15T15:20:00;12.20;96.60
42479;DHT22;28110;47.080;9.476;2023-04-15T15:22:26;12.20;96.70
42479;DHT22;28110;47.080;9.476;2023-04-15T15:24:51;12.20;97.30
42479;DHT22;28110;47.080;9.476;2023-04-15T15:27:17;12.10;98.50
42479;DHT22;28110;47.080;9.476;2023-04-15T15:29:43;12.10;99.10
42479;DHT22;28110;47.080;9.476;2023-04-15T15:32:09;11.90;98.30
42479;DHT22;28110;47.080;9.476;2023-04-15T15:34:34;11.80;98.60
42479;DHT22;28110;47.080;9.476;2023-04-15T15:37:00;11.80;98.70
42479;DHT22;28110;47.080;9.476;2023-04-15T15:39:26;11.90;99.60
42479;DHT22;28110;47.080;9.476;2023-04-15T15:41:52;11.80;99.90
42479;DHT22;28110;47.080;9.476;2023-04-15T15:44:17;11.80;99.90
42479;DHT22;28110;47.080;9.476;2023-04-15T15:46:43;11.70;99.90
42479;DHT22;28110;47.080;9.476;2023-04-15T15:49:10;11.70;99.90
42479;DHT22;28110;47.080;9.476;2023-04-15T15:51:35;11.70;99.90
42479;DHT22;28110;47.080;9.476;2023-04-15T15:54:01;11.60;99.90